TAF Espana - 23 Oct 2017 - 0947 UTC - RocketRoute WX - rrwx.com
LEAL 230500Z 2306/2406 33005KT 9999 BKN014 TX24/2312Z TN15/2306Z BECMG 2310/2313 12010KT FEW014 BECMG 2318/2320 VRB04KT LEAM 230800Z 2309/2409 34006KT 9999 FEW030 TX25/2314Z TN16/2406Z BECMG 2310/2312 09010KT BECMG 2320/2323 35006KT LEAS 230800Z 2309/2409 VRB05KT CAVOK TX19/2315Z TN10/2406Z TEMPO 2311/2318 07010KT PROB30 TEMPO 2403/2407 3000 BR LEBZ 230500Z 2306/2406 07005KT CAVOK TX25/2315Z TN08/2306Z LEBL 230500Z 2306/2406 34010KT 9999 FEW025 TX22/2312Z TN13/2306Z TEMPO 2306/2309 34012G22KT BECMG 2310/2312 20008KT BECMG 2317/2320 34006KT LEBB 230500Z 2306/2406 10008KT 9999 FEW030 TX19/2314Z TN08/2406Z PROB30 TEMPO 2306/2307 3000 BR LEGR 230800Z 2309/2409 VRB02KT CAVOK TX26/2315Z TN10/2406Z PROB30 TEMPO 2316/2318 18010KT LEIB 230800Z 2309/2409 36004KT 9999 SCT025 TX22/2312Z TN13/2406Z LEJR 230500Z 2306/2406 36005KT CAVOK TX28/2315Z TN15/2306Z PROB40 TEMPO 2306/2308 4000 BR TEMPO 2315/2319 15010KT LELN 230800Z 2309/2318 VRB02KT CAVOK LEMD 230500Z 2306/2412 02003KT CAVOK TX21/2315Z TN07/2307Z LEMG 230500Z 2306/2406 29005KT 9999 SCT020 TX24/2314Z TN16/2306Z PROB40 TEMPO 2306/2309 BKN014 BECMG 2307/2309 12007KT LEMH 230800Z 2309/2409 35012KT 9999 SCT020 TX22/2312Z TN14/2406Z TEMPO 2309/2316 33015G25KT BECMG 2318/2321 32006KT LELC 230500Z 2306/2406 36005KT 9999 SCT020 TX24/2312Z TN16/2406Z BECMG 2309/2311 10010KT BECMG 2317/2319 VRB02KT LEPA 230500Z 2306/2406 VRB04KT 9999 SCT040 TX21/2312Z TN10/2306Z BECMG 2311/2313 22010KT BECMG 2318/2320 VRB04KT LERS 230800Z 2309/2409 VRB04KT 9999 FEW040 TX22/2312Z TN11/2406Z LEXJ 230800Z 2309/2409 VRB04KT CAVOK TX20/2314Z TN10/2405Z TEMPO 2311/2318 04010KT LEST 230500Z 2306/2406 VRB05KT 8000 NSC TX18/2314Z TN08/2406Z PROB30 TEMPO 2306/2308 0350 BCFG BKN001 LEZL 230800Z 2309/2409 06008KT CAVOK TX28/2315Z TN16/2406Z LEVC AMD 230802Z 2308/2406 VRB03KT 9999 FEW040 TX23/2312Z TN11/2406Z TEMPO 2308/2312 BKN020 TEMPO 2312/2318 12008KT LEVD 230500Z 2306/2406 05005KT CAVOK TX18/2315Z TN05/2306Z LEVT AMD 230938Z 2309/2406 VRB04KT 8000 SCT005 TX20/2315Z TN05/2406Z TEMPO 2309/2311 BKN005 TEMPO 2312/2318 03010KT LEZG 230500Z 2306/2406 29010KT 9999 FEW045 TX21/2313Z TN09/2306Z GCLP 230800Z 2309/2409 04012KT 9999 FEW025 TX26/2313Z TN21/2406Z GCRR 230800Z 2309/2409 13007KT 9999 FEW025 TX27/2313Z TN21/2406Z GCXO 230800Z 2309/2409 12007KT 9999 FEW010 BKN020 TX21/2313Z TN16/2406Z BECMG 2315/2318 35010KT PROB30 TEMPO 2309/2312 2500 DZRA BKN005 GCTS 230800Z 2309/2409 07012KT 9999 SCT030 TX27/2313Z TN21/2406Z

RocketRoute WX - rrwx.com weather for pilots